Time;durP1;ratioP1;P1;durP2;ratioP2;P2;SDS_P1;SDS_P2;PMS_P1;PMS_P2;Temp;Humidity;BMP_temperature;BMP_pressure;BME280_temperature;BME280_humidity;BME280_pressure;Samples;Min_cycle;Max_cycle;Signal;HPM_P1;HPM_P2
2023/09/18 00:02:07;;;;;;;13.43;12.10;;;;;;;17.21;100.00;101983.78;4925693;29;20192;-69
2023/09/18 00:04:33;;;;;;;13.63;12.30;;;;;;;17.49;100.00;102045.84;4909615;29;20236;-69
2023/09/18 00:06:58;;;;;;;12.70;11.40;;;;;;;16.91;100.00;101945.56;4912096;29;20283;-69
2023/09/18 00:09:24;;;;;;;13.60;12.30;;;;;;;17.46;100.00;102026.47;4910325;29;20472;-69
2023/09/18 00:11:49;;;;;;;12.53;11.33;;;;;;;16.97;100.00;101941.97;4923800;29;20199;-69
2023/09/18 00:14:15;;;;;;;12.47;11.27;;;;;;;17.49;100.00;102023.31;4923609;29;20625;-69
2023/09/18 00:16:40;;;;;;;10.83;9.83;;;;;;;17.60;100.00;102030.78;4910502;29;20747;-69
2023/09/18 00:19:10;;;;;;;12.80;11.50;;;;;;;17.46;100.00;102027.28;4910436;29;20188;-69
2023/09/18 00:21:36;;;;;;;13.07;11.77;;;;;;;17.31;100.00;102030.28;4923436;29;20195;-69
2023/09/18 00:24:01;;;;;;;13.17;11.97;;;;;;;17.36;100.00;102029.66;4922164;29;20994;-69
2023/09/18 00:26:27;;;;;;;12.90;11.70;;;;;;;17.44;100.00;102029.38;4910093;29;20718;-69
2023/09/18 00:28:52;;;;;;;12.87;11.57;;;;;;;17.46;100.00;102026.47;4924504;29;20666;-69
2023/09/18 00:31:19;;;;;;;12.20;11.00;;;;;;;16.49;100.00;101905.22;4908407;29;20202;-69
2023/09/18 00:33:44;;;;;;;12.60;11.40;;;;;;;17.40;100.00;102007.28;4914667;29;20220;-69
2023/09/18 00:36:10;;;;;;;12.23;11.07;;;;;;;17.35;100.00;102007.09;4906423;29;20458;-70
2023/09/18 00:38:35;;;;;;;12.03;10.87;;;;;;;16.87;100.00;101896.38;4918943;29;20184;-70
2023/09/18 00:41:01;;;;;;;12.50;11.20;;;;;;;16.73;100.00;101887.44;4908064;29;20504;-69
2023/09/18 00:43:26;;;;;;;11.37;10.27;;;;;;;17.10;100.00;101939.22;4907757;29;20204;-70
2023/09/18 00:45:52;;;;;;;12.97;11.67;;;;;;;17.40;100.00;101942.19;4905611;29;20200;-69
2023/09/18 00:48:17;;;;;;;11.80;10.70;;;;;;;17.45;100.00;101938.00;4915598;29;20841;-70
2023/09/18 00:50:46;;;;;;;10.83;9.73;;;;;;;16.77;100.00;101828.25;4907255;29;20208;-70
2023/09/18 00:53:19;;;;;;;11.97;10.83;;;;;;;16.76;100.00;101810.34;4906144;29;20215;-69
2023/09/18 00:55:45;;;;;;;11.50;10.40;;;;;;;16.85;100.00;101811.75;4908672;29;20531;-69
2023/09/18 00:58:11;;;;;;;11.23;10.13;;;;;;;16.85;100.00;101794.69;4907890;29;20481;-69
2023/09/18 01:00:38;;;;;;;12.10;10.90;;;;;;;17.03;100.00;101816.44;4914616;29;20188;-69
2023/09/18 01:03:04;;;;;;;11.20;10.00;;;;;;;16.56;100.00;101750.81;4917119;29;20452;-69
2023/09/18 01:05:33;;;;;;;10.93;9.83;;;;;;;17.07;100.00;101849.38;4909611;29;20452;-69
2023/09/18 01:07:59;;;;;;;10.50;9.50;;;;;;;17.33;100.00;101873.63;4914404;29;20436;-69
2023/09/18 01:10:36;;;;;;;10.23;9.23;;;;;;;17.10;100.00;101832.69;4925779;29;20848;-69
2023/09/18 01:13:13;;;;;;;9.90;8.90;;;;;;;17.29;100.00;101847.16;4928936;29;20332;-70
2023/09/18 01:16:02;;;;;;;10.90;9.80;;;;;;;17.34;100.00;101850.88;4929625;29;20430;-70
2023/09/18 01:18:28;;;;;;;11.83;9.90;;;;;;;16.55;100.00;101723.94;4926911;29;20449;-70
2023/09/18 01:20:53;;;;;;;9.87;8.97;;;;;;;17.32;100.00;101828.56;4913091;29;20541;-69
2023/09/18 01:23:18;;;;;;;10.50;9.40;;;;;;;17.29;100.00;101818.16;4913214;29;20251;-69
2023/09/18 01:25:44;;;;;;;10.70;9.70;;;;;;;16.92;100.00;101769.22;4912100;29;20221;-70
2023/09/18 01:28:09;;;;;;;11.70;9.33;;;;;;;16.54;100.00;101685.22;4925507;29;20184;-70
2023/09/18 01:30:35;;;;;;;14.77;9.33;;;;;;;17.28;100.00;101793.97;4912623;29;20582;-70
2023/09/18 01:33:04;;;;;;;10.70;9.60;;;;;;;16.39;100.00;101655.72;4912166;29;20691;-69
2023/09/18 01:35:31;;;;;;;12.40;11.20;;;;;;;16.97;100.00;101748.75;4923601;29;20211;-69
2023/09/18 01:37:58;;;;;;;10.57;9.57;;;;;;;17.10;100.00;101779.31;4911750;29;20448;-70
2023/09/18 01:40:25;;;;;;;11.60;10.40;;;;;;;17.30;100.00;101784.59;4912002;29;20939;-70
2023/09/18 01:42:50;;;;;;;11.80;10.60;;;;;;;17.23;100.00;101772.94;4911791;29;20460;-69
2023/09/18 01:45:16;;;;;;;11.50;10.40;;;;;;;17.39;100.00;101793.28;4927146;29;20427;-70
2023/09/18 01:47:41;;;;;;;11.57;10.47;;;;;;;17.24;100.00;101760.22;4912897;29;20296;-69
2023/09/18 01:50:07;;;;;;;11.63;10.23;;;;;;;17.23;100.00;101775.66;4910471;29;20288;-70
2023/09/18 01:52:34;;;;;;;10.97;9.03;;;;;;;17.10;100.00;101749.47;4913554;29;20294;-70
2023/09/18 01:55:00;;;;;;;10.80;9.80;;;;;;;16.59;100.00;101674.56;4928756;29;20191;-69
2023/09/18 01:57:25;;;;;;;11.50;10.40;;;;;;;17.20;100.00;101786.09;4910640;29;20440;-70
2023/09/18 01:59:51;;;;;;;12.00;10.83;;;;;;;17.16;100.00;101769.47;4913790;29;20289;-70
2023/09/18 02:02:16;;;;;;;16.63;10.93;;;;;;;16.36;100.00;101645.34;4912158;29;20181;-69
2023/09/18 02:04:42;;;;;;;11.77;10.67;;;;;;;17.37;100.00;101781.81;4923249;29;20291;-70
2023/09/18 02:07:07;;;;;;;11.23;10.13;;;;;;;17.03;100.00;101735.13;4911548;29;20691;-69
2023/09/18 02:09:32;;;;;;;11.73;10.53;;;;;;;17.10;100.00;101735.09;4923204;29;20216;-69
2023/09/18 02:11:58;;;;;;;12.57;11.27;;;;;;;16.99;100.00;101716.84;4912708;29;20211;-70
2023/09/18 02:14:24;;;;;;;13.27;11.97;;;;;;;16.55;100.00;101648.13;4925017;29;20212;-70
2023/09/18 02:16:49;;;;;;;12.30;11.10;;;;;;;16.87;100.00;101695.03;4912917;29;20188;-69
2023/09/18 02:19:16;;;;;;;11.37;10.27;;;;;;;17.24;100.00;101760.22;4926791;29;20189;-70
2023/09/18 02:21:42;;;;;;;12.40;11.10;;;;;;;17.23;100.00;101750.44;4911658;29;20436;-70
2023/09/18 02:24:07;;;;;;;12.20;10.17;;;;;;;17.25;100.00;101756.47;4911741;29;20459;-70
2023/09/18 02:26:33;;;;;;;12.00;10.63;;;;;;;17.23;100.00;101751.25;4910822;29;20275;-69
2023/09/18 02:29:01;;;;;;;11.70;10.60;;;;;;;16.80;100.00;101689.66;4910705;29;20250;-69
2023/09/18 02:31:27;;;;;;;11.77;10.57;;;;;;;17.10;100.00;101754.91;4921223;29;20285;-70
2023/09/18 02:33:52;;;;;;;11.67;10.47;;;;;;;16.96;100.00;101720.00;4911393;29;20503;-69
2023/09/18 02:36:17;;;;;;;11.30;10.13;;;;;;;17.22;100.00;101751.50;4910320;29;20193;-69
2023/09/18 02:38:43;;;;;;;11.00;9.90;;;;;;;16.89;100.00;101682.94;4910625;29;20432;-69
2023/09/18 02:41:09;;;;;;;11.10;10.00;;;;;;;16.58;100.00;101636.88;4925745;29;20184;-70
2023/09/18 02:43:34;;;;;;;12.40;9.90;;;;;;;17.37;100.00;101731.09;4921555;29;20215;-70
2023/09/18 02:46:00;;;;;;;11.60;10.50;;;;;;;17.40;100.00;101737.97;4922169;29;20236;-70
2023/09/18 02:48:25;;;;;;;10.83;9.73;;;;;;;17.27;100.00;101706.41;4911705;29;20677;-70
2023/09/18 02:50:51;;;;;;;9.97;8.90;;;;;;;16.99;100.00;101687.84;4913043;29;20691;-70
2023/09/18 02:53:24;;;;;;;12.40;10.20;;;;;;;17.30;100.00;101711.38;4910544;29;20214;-69
2023/09/18 02:55:56;;;;;;;11.57;10.37;;;;;;;16.89;100.00;101631.44;4913037;29;20200;-69
2023/09/18 02:58:25;;;;;;;12.27;10.10;;;;;;;16.78;100.00;101609.63;4912351;29;20441;-69
2023/09/18 03:00:51;;;;;;;11.97;10.67;;;;;;;17.48;100.00;101717.88;4911887;29;21219;-70
2023/09/18 03:03:17;;;;;;;11.47;9.60;;;;;;;17.49;100.00;101700.56;4908489;29;20527;-69
2023/09/18 03:05:44;;;;;;;11.53;9.47;;;;;;;16.82;100.00;101581.91;4910049;29;20557;-70
2023/09/18 03:08:10;;;;;;;10.93;9.83;;;;;;;16.87;100.00;101582.06;4920800;29;20192;-69
2023/09/18 03:10:39;;;;;;;10.73;9.60;;;;;;;17.43;100.00;101650.75;4919784;29;20531;-70
2023/09/18 03:13:06;;;;;;;12.10;10.27;;;;;;;16.68;100.00;101540.50;4911028;29;20456;-69
2023/09/18 03:15:32;;;;;;;11.27;10.10;;;;;;;17.51;100.00;101666.72;4924826;29;20520;-69
2023/09/18 03:17:58;;;;;;;11.30;10.10;;;;;;;17.47;100.00;101646.50;4911807;29;20539;-70
2023/09/18 03:20:28;;;;;;;11.27;10.07;;;;;;;16.90;100.00;101553.69;4923835;29;20192;-70
2023/09/18 03:22:56;;;;;;;11.80;10.60;;;;;;;16.81;100.00;101538.78;4908008;29;20448;-70
2023/09/18 03:25:22;;;;;;;12.67;10.07;;;;;;;16.96;100.00;101543.84;4911040;29;20572;-69
2023/09/18 03:27:47;;;;;;;11.30;9.07;;;;;;;16.88;100.00;101528.69;4910181;29;20993;-70
2023/09/18 03:30:15;;;;;;;10.67;9.63;;;;;;;17.60;100.00;101618.44;4922819;29;20751;-70
2023/09/18 03:32:42;;;;;;;11.37;10.10;;;;;;;16.73;100.00;101488.38;4920185;29;20220;-70
2023/09/18 03:35:15;;;;;;;10.73;9.63;;;;;;;17.57;100.00;101597.19;4924917;29;20444;-70
2023/09/18 03:37:41;;;;;;;10.83;9.70;;;;;;;17.50;100.00;101580.16;4906955;29;20526;-70
2023/09/18 03:40:07;;;;;;;12.37;10.00;;;;;;;17.57;100.00;101570.88;4923277;29;20440;-70
2023/09/18 03:42:33;;;;;;;11.23;10.00;;;;;;;17.56;100.00;101546.69;4911252;29;20556;-70
2023/09/18 03:44:58;;;;;;;11.63;10.07;;;;;;;17.67;100.00;101547.81;4912488;29;20436;-70
2023/09/18 03:47:23;;;;;;;10.60;9.23;;;;;;;16.99;100.00;101418.75;4911205;29;20199;-69
2023/09/18 03:49:49;;;;;;;11.53;10.03;;;;;;;17.55;100.00;101507.88;4911603;29;20213;-69
2023/09/18 03:52:14;;;;;;;11.63;9.97;;;;;;;17.22;100.00;101462.22;4910087;29;20188;-69
2023/09/18 03:54:40;;;;;;;12.17;10.03;;;;;;;17.19;100.00;101453.72;4911691;29;20656;-69
2023/09/18 03:57:05;;;;;;;10.93;9.77;;;;;;;16.95;100.00;101385.81;4925399;29;20192;-69
2023/09/18 03:59:30;;;;;;;15.77;10.70;;;;;;;17.38;100.00;101445.31;4909439;29;20731;-69
2023/09/18 04:01:56;;;;;;;11.10;9.90;;;;;;;17.59;100.00;101432.34;4925053;29;20195;-69
2023/09/18 04:04:21;;;;;;;12.10;10.80;;;;;;;17.46;100.00;101405.38;4920217;29;20679;-69
2023/09/18 04:06:47;;;;;;;11.77;10.57;;;;;;;17.70;100.00;101414.41;4907741;29;20196;-69
2023/09/18 04:09:14;;;;;;;13.30;11.90;;;;;;;17.76;100.00;101406.19;4923588;29;20191;-70
2023/09/18 04:11:40;;;;;;;13.23;11.03;;;;;;;17.70;100.00;101390.00;4924673;29;20195;-69
2023/09/18 04:14:06;;;;;;;10.50;9.40;;;;;;;17.75;100.00;101377.38;4910391;29;20457;-69
2023/09/18 04:16:35;;;;;;;12.40;11.10;;;;;;;17.34;100.00;101305.03;4908557;29;20230;-69
2023/09/18 04:19:01;;;;;;;12.70;10.27;;;;;;;17.06;100.00;101246.03;4908800;29;20249;-69
2023/09/18 04:21:27;;;;;;;11.43;10.27;;;;;;;17.35;100.00;101274.94;4907082;29;20829;-69
2023/09/18 04:23:57;;;;;;;14.53;10.40;;;;;;;17.01;100.00;101237.75;4908835;29;20571;-69
2023/09/18 04:26:23;;;;;;;11.40;10.20;;;;;;;17.43;100.00;101281.94;4920118;29;20230;-70
2023/09/18 04:28:48;;;;;;;9.87;8.87;;;;;;;17.73;100.00;101297.28;4906249;29;20449;-69
2023/09/18 04:31:14;;;;;;;12.20;9.80;;;;;;;17.59;100.00;101259.56;4917374;29;20499;-69
2023/09/18 04:33:39;;;;;;;11.33;9.60;;;;;;;17.60;100.00;101266.63;4905764;29;21657;-70
2023/09/18 04:36:05;;;;;;;9.87;8.87;;;;;;;17.39;100.00;101216.50;4910293;29;20267;-69
2023/09/18 04:38:30;;;;;;;12.00;9.17;;;;;;;17.66;100.00;101237.72;4909140;29;20236;-69
2023/09/18 04:40:59;;;;;;;11.53;9.67;;;;;;;17.08;100.00;101106.53;4911126;29;20271;-69
2023/09/18 04:43:25;;;;;;;9.73;8.73;;;;;;;17.15;100.00;101111.81;4910773;29;20208;-69
2023/09/18 04:45:51;;;;;;;9.60;8.60;;;;;;;17.32;100.00;101117.34;4924916;29;20455;-70
2023/09/18 04:48:16;;;;;;;11.20;9.43;;;;;;;17.59;100.00;101156.47;4903274;29;20535;-70
2023/09/18 04:50:43;;;;;;;10.40;8.50;;;;;;;17.91;100.00;101204.13;4910529;29;20211;-69
2023/09/18 04:53:08;;;;;;;11.73;9.10;;;;;;;17.24;100.00;101104.16;4909662;29;20723;-70
2023/09/18 04:55:34;;;;;;;10.20;9.10;;;;;;;17.83;100.00;101175.47;4910651;29;20846;-70
2023/09/18 04:57:59;;;;;;;10.77;9.30;;;;;;;17.12;100.00;101067.03;4910279;29;20535;-69
2023/09/18 05:00:26;;;;;;;9.20;7.40;;;;;;;17.54;100.00;101125.72;4908074;29;20192;-70
2023/09/18 05:02:52;;;;;;;10.37;8.63;;;;;;;17.24;100.00;101063.50;4920863;29;21880;-70
2023/09/18 05:05:18;;;;;;;13.43;8.43;;;;;;;17.54;100.00;101123.00;4909039;29;20484;-70
2023/09/18 05:07:44;;;;;;;9.87;8.80;;;;;;;17.28;100.00;101076.34;4907048;29;21055;-70
2023/09/18 05:10:10;;;;;;;13.90;7.87;;;;;;;17.99;100.00;101182.03;4909385;29;20557;-69
2023/09/18 05:12:37;;;;;;;10.80;8.43;;;;;;;17.66;100.00;101126.50;4905035;29;20212;-69
2023/09/18 05:15:04;;;;;;;10.67;8.10;;;;;;;17.38;100.00;101073.03;4907100;29;20538;-69
2023/09/18 05:17:42;;;;;;;10.53;8.30;;;;;;;17.88;100.00;101134.88;4903309;29;20456;-70
2023/09/18 05:20:10;;;;;;;10.93;8.77;;;;;;;17.49;100.00;101074.88;4918476;29;20440;-69
2023/09/18 05:22:35;;;;;;;9.00;7.80;;;;;;;18.00;100.00;101154.66;4904418;29;20532;-69
2023/09/18 05:25:01;;;;;;;8.83;7.93;;;;;;;17.45;100.00;101062.06;4920179;29;20450;-69
2023/09/18 05:27:26;;;;;;;9.30;7.70;;;;;;;17.56;100.00;101066.59;4905305;29;20910;-69
2023/09/18 05:29:52;;;;;;;9.30;7.60;;;;;;;17.79;100.00;101110.00;4909136;29;20479;-69
2023/09/18 05:32:17;;;;;;;7.80;7.00;;;;;;;17.40;100.00;101033.75;4906152;29;20184;-70
2023/09/18 05:34:43;;;;;;;8.77;7.40;;;;;;;17.46;100.00;101029.28;4908594;29;20188;-69
2023/09/18 05:37:09;;;;;;;9.13;7.37;;;;;;;17.96;100.00;101112.78;4907845;29;20184;-70
2023/09/18 05:39:34;;;;;;;7.90;7.03;;;;;;;17.78;100.00;101058.69;4920068;29;20184;-69
2023/09/18 05:41:59;;;;;;;8.13;7.30;;;;;;;18.12;100.00;101122.03;4906029;29;20527;-70
2023/09/18 05:44:25;;;;;;;9.50;6.93;;;;;;;17.86;100.00;101068.34;4905074;29;20220;-69
2023/09/18 05:46:50;;;;;;;9.63;6.90;;;;;;;17.90;100.00;101072.22;4922387;29;20528;-69
2023/09/18 05:49:16;;;;;;;7.40;6.53;;;;;;;17.46;100.00;100988.59;4924651;29;20184;-69
2023/09/18 05:51:41;;;;;;;7.50;6.40;;;;;;;18.01;100.00;101083.03;4923149;29;20184;-70
2023/09/18 05:54:07;;;;;;;7.13;6.40;;;;;;;18.15;100.00;101115.31;4908190;29;20223;-69
2023/09/18 05:56:33;;;;;;;7.87;6.70;;;;;;;18.19;100.00;101133.56;4923395;29;20283;-69
2023/09/18 05:58:59;;;;;;;10.80;6.30;;;;;;;18.27;100.00;101129.66;4925851;29;20191;-69
2023/09/18 06:01:25;;;;;;;8.30;6.70;;;;;;;18.19;100.00;101120.00;4910587;29;20448;-69
2023/09/18 06:03:50;;;;;;;8.27;7.40;;;;;;;18.22;100.00;101122.22;4924429;29;20219;-70
2023/09/18 06:06:16;;;;;;;8.37;6.00;;;;;;;17.73;100.00;101026.81;4920882;29;20459;-69
2023/09/18 06:08:41;;;;;;;8.77;5.93;;;;;;;18.21;100.00;101109.72;4923038;29;20565;-69
2023/09/18 06:11:06;;;;;;;7.77;5.97;;;;;;;18.33;100.00;101115.09;4908741;29;20714;-69
2023/09/18 06:13:34;;;;;;;8.33;5.47;;;;;;;18.22;100.00;101078.78;4905751;29;20220;-69
2023/09/18 06:16:05;;;;;;;8.37;6.60;;;;;;;18.33;100.00;101101.53;4924419;29;20247;-70
2023/09/18 06:18:30;;;;;;;6.83;5.23;;;;;;;18.35;100.00;101091.25;4915136;29;20448;-70
2023/09/18 06:20:56;;;;;;;6.73;5.07;;;;;;;18.48;100.00;101090.09;4906847;29;20515;-69
2023/09/18 06:23:21;;;;;;;7.30;5.50;;;;;;;18.35;100.00;101074.97;4907669;29;20231;-70
2023/09/18 06:25:47;;;;;;;6.40;4.63;;;;;;;18.53;100.00;101095.63;4909503;29;20362;-69
2023/09/18 06:28:12;;;;;;;6.40;5.00;;;;;;;17.95;100.00;100990.91;4908893;29;20636;-69
2023/09/18 06:30:38;;;;;;;7.80;5.23;;;;;;;18.48;100.00;101079.25;4921100;29;20254;-69
2023/09/18 06:33:04;;;;;;;8.20;5.50;;;;;;;18.49;100.00;101098.03;4910237;29;20603;-70
2023/09/18 06:35:29;;;;;;;8.80;6.30;;;;;;;18.40;100.00;101104.94;4922247;29;20675;-69
2023/09/18 06:37:58;;;;;;;7.40;6.20;;;;;;;18.19;100.00;101076.56;4909286;29;20188;-69
2023/09/18 06:40:25;;;;;;;12.70;7.10;;;;;;;17.73;100.00;100999.69;4922130;29;20218;-69
2023/09/18 06:42:51;;;;;;;9.10;6.80;;;;;;;18.30;100.00;101097.41;4908679;29;20539;-69
2023/09/18 06:45:17;;;;;;;10.30;6.63;;;;;;;18.35;100.00;101053.25;4908365;29;21010;-69
2023/09/18 06:47:42;;;;;;;8.90;6.00;;;;;;;18.11;100.00;100987.41;4907655;29;20448;-69
2023/09/18 06:50:09;;;;;;;10.23;6.40;;;;;;;17.57;100.00;100862.16;4922264;29;20261;-69
2023/09/18 06:52:34;;;;;;;13.40;7.33;;;;;;;17.37;100.00;100782.09;4908349;29;20212;-69
2023/09/18 06:55:00;;;;;;;12.33;6.80;;;;;;;18.17;100.00;100858.84;4908339;29;20460;-69
2023/09/18 06:57:25;;;;;;;7.17;6.13;;;;;;;18.11;100.00;100797.41;4903281;29;20197;-69
2023/09/18 06:59:51;;;;;;;8.90;6.60;;;;;;;17.72;100.00;100694.22;4908310;29;20184;-69
2023/09/18 07:02:16;;;;;;;10.13;6.17;;;;;;;17.99;100.00;100709.81;4906881;29;20340;-69
2023/09/18 07:04:45;;;;;;;12.57;6.10;;;;;;;17.94;100.00;100694.31;4920225;29;20684;-69
2023/09/18 07:07:12;;;;;;;11.53;6.67;;;;;;;17.50;100.00;100607.44;4907886;29;20187;-69
2023/09/18 07:09:38;;;;;;;8.63;6.97;;;;;;;18.16;100.00;100686.16;4906050;29;20476;-69
2023/09/18 07:12:04;;;;;;;7.73;6.47;;;;;;;18.04;100.00;100628.47;4907070;29;20471;-69
2023/09/18 07:14:30;;;;;;;8.10;6.80;;;;;;;17.91;100.00;100593.59;4915858;29;20774;-69
2023/09/18 07:16:56;;;;;;;12.43;6.60;;;;;;;17.63;100.00;100539.25;4906959;29;20449;-69
2023/09/18 07:19:21;;;;;;;8.57;6.90;;;;;;;18.06;100.00;100593.75;4904953;29;20509;-69
2023/09/18 07:21:47;;;;;;;7.50;6.10;;;;;;;18.25;100.00;100619.50;4906552;29;20660;-69
2023/09/18 07:24:20;;;;;;;9.37;6.03;;;;;;;18.10;100.00;100603.03;4906810;29;20200;-69
2023/09/18 07:26:47;;;;;;;10.97;6.37;;;;;;;17.64;100.00;100534.63;4923291;29;20291;-69
2023/09/18 07:29:15;;;;;;;10.10;6.47;;;;;;;17.95;100.00;100521.47;4909548;29;20443;-70
2023/09/18 07:31:44;;;;;;;12.10;7.23;;;;;;;18.33;100.00;100534.03;4906316;29;20473;-68
2023/09/18 07:34:10;;;;;;;11.30;6.47;;;;;;;18.23;100.00;100531.25;4921365;29;20476;-70
2023/09/18 07:36:36;;;;;;;10.10;6.43;;;;;;;17.49;100.00;100375.28;4905323;29;20452;-69
2023/09/18 07:39:02;;;;;;;15.07;7.03;;;;;;;18.18;100.00;100447.03;4918867;29;20184;-69
2023/09/18 07:41:27;;;;;;;15.23;7.20;;;;;;;17.68;100.00;100355.97;4908929;29;20967;-69
2023/09/18 07:43:53;;;;;;;12.90;7.13;;;;;;;18.41;100.00;100489.31;4909687;29;20208;-69
2023/09/18 07:46:18;;;;;;;12.57;7.60;;;;;;;18.43;100.00;100454.59;4910026;29;20191;-70
2023/09/18 07:48:43;;;;;;;11.40;6.63;;;;;;;18.45;100.00;100444.25;4907403;29;20192;-70
2023/09/18 07:51:13;;;;;;;9.90;6.30;;;;;;;17.86;100.00;100248.97;4905111;29;20209;-69
2023/09/18 07:53:39;;;;;;;8.80;6.73;;;;;;;18.38;100.00;100378.50;4921551;29;20204;-69
2023/09/18 07:56:05;;;;;;;12.67;8.03;;;;;;;18.13;100.00;100314.81;4908111;29;20448;-69
2023/09/18 07:58:33;;;;;;;11.33;7.13;;;;;;;18.17;100.00;100320.56;4907209;29;20477;-69
2023/09/18 08:00:59;;;;;;;10.47;7.57;;;;;;;17.72;100.00;100227.69;4912465;29;20331;-69
2023/09/18 08:03:25;;;;;;;8.83;6.83;;;;;;;17.73;100.00;100275.44;4906401;29;20941;-69
2023/09/18 08:05:52;;;;;;;7.63;6.40;;;;;;;18.44;100.00;100369.31;4901743;29;20440;-69
2023/09/18 08:08:20;;;;;;;7.20;5.40;;;;;;;17.73;100.00;100294.41;4917776;29;20534;-69
2023/09/18 08:10:46;;;;;;;8.07;5.10;;;;;;;18.35;100.00;100387.19;4906447;29;20499;-69
2023/09/18 08:13:12;;;;;;;7.50;4.80;;;;;;;18.06;100.00;100354.94;4913180;29;20467;-69
2023/09/18 08:15:37;;;;;;;7.10;5.30;;;;;;;18.40;100.00;101243.44;4916147;29;20831;-69
2023/09/18 08:18:03;;;;;;;8.10;5.17;;;;;;;18.44;100.00;101290.75;4914274;29;20436;-69
2023/09/18 08:20:29;;;;;;;6.20;4.90;;;;;;;18.46;100.00;101313.09;4913266;29;20288;-70
2023/09/18 08:22:54;;;;;;;6.20;4.67;;;;;;;18.50;100.00;101337.88;4901011;29;20215;-70
2023/09/18 08:25:20;;;;;;;5.17;3.70;;;;;;;17.89;100.00;101252.38;4902990;29;20192;-70
2023/09/18 08:27:45;;;;;;;6.50;4.03;;;;;;;17.75;100.00;101252.59;4905489;29;20188;-70
2023/09/18 08:30:12;;;;;;;7.80;4.27;;;;;;;17.87;100.00;101312.31;4922355;29;20231;-70
2023/09/18 08:32:39;;;;;;;6.30;4.00;;;;;;;18.46;100.00;101424.44;4898687;29;20218;-70
2023/09/18 08:35:05;;;;;;;4.90;3.80;;;;;;;18.40;100.00;101436.28;4918909;29;20442;-70
2023/09/18 08:37:31;;;;;;;8.53;4.93;;;;;;;17.91;100.00;101380.53;4901854;29;20476;-70
2023/09/18 08:39:56;;;;;;;4.83;3.80;;;;;;;18.33;100.00;101429.28;4915304;29;20575;-70
2023/09/18 08:42:23;;;;;;;6.33;3.90;;;;;;;17.92;100.00;101384.88;4906764;29;20188;-70
2023/09/18 08:44:51;;;;;;;7.40;4.30;;;;;;;18.59;100.00;101466.00;4903370;29;20194;-70
2023/09/18 08:47:19;;;;;;;6.50;4.20;;;;;;;17.90;100.00;101352.53;4911196;29;21112;-70
2023/09/18 08:49:48;;;;;;;6.10;4.40;;;;;;;17.99;100.00;101391.00;4917350;29;20472;-70
2023/09/18 08:52:15;;;;;;;6.17;4.63;;;;;;;17.82;100.00;101404.47;4921197;29;20564;-70
2023/09/18 08:54:43;;;;;;;7.83;5.73;;;;;;;18.43;100.00;101505.59;4906161;29;21125;-70
2023/09/18 08:57:09;;;;;;;7.30;5.57;;;;;;;17.97;100.00;101442.84;4897145;29;20447;-70
2023/09/18 08:59:36;;;;;;;9.60;6.10;;;;;;;17.86;100.00;101451.78;4917512;29;20451;-70
2023/09/18 09:02:01;;;;;;;9.03;5.87;;;;;;;17.98;100.00;101482.47;4909866;29;20195;-70
2023/09/18 09:04:27;;;;;;;9.77;6.87;;;;;;;18.28;100.00;101528.59;4913644;29;20464;-70
2023/09/18 09:06:52;;;;;;;7.80;6.53;;;;;;;18.55;100.00;101578.94;4907435;29;20564;-70
2023/09/18 09:09:19;;;;;;;9.80;6.30;;;;;;;18.70;100.00;101620.91;4905404;29;20215;-70
2023/09/18 09:11:51;;;;;;;10.37;8.57;;;;;;;18.63;100.00;101641.06;4919481;29;20617;-70
2023/09/18 09:14:21;;;;;;;10.47;8.47;;;;;;;17.89;100.00;101538.16;4918796;29;20512;-70
2023/09/18 09:16:51;;;;;;;12.37;8.70;;;;;;;18.03;100.00;101590.38;4904835;29;20455;-70
2023/09/18 09:19:17;;;;;;;11.17;8.23;;;;;;;17.98;100.00;101615.47;4914849;29;20439;-70
2023/09/18 09:21:44;;;;;;;12.87;8.97;;;;;;;18.63;100.00;101734.31;4916543;29;20448;-70
2023/09/18 09:24:18;;;;;;;11.50;8.47;;;;;;;17.99;100.00;101667.88;4909520;29;20535;-70
2023/09/18 09:26:43;;;;;;;12.80;8.83;;;;;;;17.90;100.00;101658.38;4912048;29;21004;-70
2023/09/18 09:29:27;;;;;;;10.40;7.53;;;;;;;18.20;100.00;101718.16;4913508;29;20476;-70
2023/09/18 09:31:53;;;;;;;10.90;8.47;;;;;;;18.15;100.00;101745.16;4913491;29;20189;-70
2023/09/18 09:34:26;;;;;;;9.40;7.70;;;;;;;18.57;100.00;101827.56;4926664;29;20519;-70
2023/09/18 09:36:55;;;;;;;11.20;6.80;;;;;;;18.39;100.00;101814.03;4910356;29;20440;-70
2023/09/18 09:39:24;;;;;;;11.87;6.67;;;;;;;18.50;100.00;101848.56;4926255;29;20471;-70
2023/09/18 09:41:53;;;;;;;9.37;6.70;;;;;;;18.40;100.00;101842.81;4925683;29;20995;-70
2023/09/18 09:44:20;;;;;;;9.80;6.23;;;;;;;18.05;100.00;101775.53;4907041;29;20992;-70
2023/09/18 09:46:50;;;;;;;12.83;6.70;;;;;;;18.05;100.00;101803.53;4925475;29;20564;-70
2023/09/18 09:49:15;;;;;;;8.07;6.77;;;;;;;18.13;100.00;101845.00;4925368;29;20503;-70
2023/09/18 09:51:42;;;;;;;10.33;6.77;;;;;;;18.06;100.00;101867.63;4923810;29;20474;-70
2023/09/18 09:54:07;;;;;;;8.77;6.13;;;;;;;18.61;100.00;102016.28;4907579;29;20290;-70
2023/09/18 09:56:53;;;;;;;7.30;5.83;;;;;;;18.00;100.00;101989.88;4920656;29;20794;-70
2023/09/18 09:59:19;;;;;;;10.70;6.37;;;;;;;18.08;100.00;102057.47;4906506;29;20195;-70
2023/09/18 10:01:50;;;;;;;8.10;7.00;;;;;;;18.13;100.00;102079.34;4907712;29;20540;-70
2023/09/18 10:04:17;;;;;;;8.37;6.60;;;;;;;18.66;100.00;102168.63;4924805;29;20299;-70
2023/09/18 10:06:46;;;;;;;11.23;7.27;;;;;;;18.66;100.00;102197.66;4919698;29;20444;-70
2023/09/18 10:09:15;;;;;;;7.47;6.47;;;;;;;18.72;100.00;102208.50;4906033;29;20515;-70
2023/09/18 10:11:44;;;;;;;9.37;6.97;;;;;;;18.17;100.00;102123.22;4905517;29;20459;-70
2023/09/18 10:14:17;;;;;;;12.30;7.83;;;;;;;18.18;100.00;102119.44;4922445;29;20555;-70
2023/09/18 10:16:49;;;;;;;10.77;9.17;;;;;;;18.87;100.00;102262.59;4909682;29;20441;-70
2023/09/18 10:19:28;;;;;;;9.37;8.37;;;;;;;19.02;100.00;102247.84;4906803;29;20519;-70
2023/09/18 10:22:00;;;;;;;10.53;7.97;;;;;;;19.10;100.00;102258.47;4922799;29;20483;-70
2023/09/18 10:24:32;;;;;;;13.57;9.33;;;;;;;18.96;100.00;102253.13;4922151;29;20464;-70
2023/09/18 10:27:00;;;;;;;11.33;9.40;;;;;;;18.52;100.00;102183.38;4904335;29;20444;-70
2023/09/18 10:29:27;;;;;;;14.23;9.60;;;;;;;18.77;100.00;102218.75;4908414;29;20464;-70
2023/09/18 10:31:53;;;;;;;13.07;9.13;;;;;;;18.28;100.00;102136.91;4917153;29;20467;-70
2023/09/18 10:34:20;;;;;;;13.57;10.40;;;;;;;19.13;100.00;102267.00;4915019;29;20559;-70
2023/09/18 10:36:48;;;;;;;11.23;10.03;;;;;;;18.64;100.00;102173.44;4905678;29;21132;-70
2023/09/18 10:39:19;;;;;;;14.70;11.80;;;;;;;19.29;100.00;102278.38;4901908;29;20947;-70
2023/09/18 10:41:47;;;;;;;14.27;10.57;;;;;;;18.89;100.00;102159.91;4909479;29;20452;-70
2023/09/18 10:44:14;;;;;;;14.50;11.00;;;;;;;19.57;100.00;102227.06;4906617;29;20471;-70
2023/09/18 10:46:39;;;;;;;13.70;10.77;;;;;;;19.73;100.00;102246.59;4907266;29;20448;-70
2023/09/18 10:49:05;;;;;;;13.87;11.13;;;;;;;19.66;100.00;102235.78;4908043;29;20464;-70
2023/09/18 10:51:33;;;;;;;12.10;10.50;;;;;;;19.50;100.00;102209.13;4916433;29;20278;-70
2023/09/18 10:53:59;;;;;;;14.10;11.13;;;;;;;18.83;100.00;102105.59;4900691;29;20208;-69
2023/09/18 10:56:26;;;;;;;13.20;10.90;;;;;;;18.91;100.00;102103.41;4909880;29;20447;-70
2023/09/18 10:59:03;;;;;;;14.97;10.80;;;;;;;19.07;100.00;102101.19;4919561;29;20463;-70
2023/09/18 11:01:32;;;;;;;13.80;10.53;;;;;;;19.24;100.00;102109.56;4916361;29;20735;-70
2023/09/18 11:04:03;;;;;;;16.40;11.50;;;;;;;19.86;100.00;102164.78;4919916;29;20464;-70
2023/09/18 11:06:29;;;;;;;13.70;11.20;;;;;;;19.33;100.00;102029.34;4907323;29;20880;-70
2023/09/18 11:09:06;;;;;;;13.17;11.20;;;;;;;19.53;100.00;102037.25;4907215;29;20519;-69